Time;durP1;ratioP1;P1;durP2;ratioP2;P2;SDS_P1;SDS_P2;PMS_P1;PMS_P2;Temp;Humidity;BMP_temperature;BMP_pressure;BME280_temperature;BME280_humidity;BME280_pressure;Samples;Min_cycle;Max_cycle;Signal;HPM_P1;HPM_P2
2021/12/27 00:02:06;;;;;;;15.70;9.52;;;;;;;;;;5073214;28;20457;-65
2021/12/27 00:04:32;;;;;;;13.63;9.27;;;;;;;;;;5073111;28;20527;-64
2021/12/27 00:06:58;;;;;;;15.80;9.50;;;;;;;;;;5073298;28;20024;-65
2021/12/27 00:09:23;;;;;;;15.98;8.90;;;;;;;;;;5075309;28;20050;-65
2021/12/27 00:11:49;;;;;;;15.95;9.32;;;;;;;;;;5073152;28;20028;-64
2021/12/27 00:14:14;;;;;;;14.13;9.15;;;;;;;;;;5072873;28;20058;-65
2021/12/27 00:16:40;;;;;;;16.02;9.23;;;;;;;;;;5072984;28;20031;-64
2021/12/27 00:19:05;;;;;;;17.10;9.43;;;;;;;;;;5071030;28;20065;-65
2021/12/27 00:21:31;;;;;;;16.13;9.23;;;;;;;;;;5072167;28;20101;-65
2021/12/27 00:23:56;;;;;;;14.05;9.05;;;;;;;;;;5072816;28;20025;-67
2021/12/27 00:26:21;;;;;;;15.65;8.95;;;;;;;;;;5072931;28;20360;-64
2021/12/27 00:28:47;;;;;;;17.38;9.55;;;;;;;;;;5072771;28;20028;-65
2021/12/27 00:31:12;;;;;;;14.10;8.35;;;;;;;;;;5072667;28;20037;-64
2021/12/27 00:33:38;;;;;;;12.18;8.10;;;;;;;;;;5072319;28;20555;-64
2021/12/27 00:36:04;;;;;;;14.75;8.50;;;;;;;;;;5074158;28;20024;-64
2021/12/27 00:38:29;;;;;;;13.32;8.27;;;;;;;;;;5073186;28;20050;-65
2021/12/27 00:40:55;;;;;;;16.25;8.60;;;;;;;;;;5072590;28;20205;-65
2021/12/27 00:43:20;;;;;;;14.65;8.93;;;;;;;;;;5073860;28;20024;-68
2021/12/27 00:45:46;;;;;;;14.50;8.50;;;;;;;;;;5071981;28;20020;-65
2021/12/27 00:48:11;;;;;;;13.15;8.20;;;;;;;;;;5072606;28;20495;-64
2021/12/27 00:50:37;;;;;;;14.73;8.13;;;;;;;;;;5072615;28;20021;-65
2021/12/27 00:53:03;;;;;;;11.75;7.72;;;;;;;;;;5072148;28;20056;-64
2021/12/27 00:55:28;;;;;;;12.60;8.25;;;;;;;;;;5072603;28;20035;-65
2021/12/27 00:57:54;;;;;;;13.65;8.07;;;;;;;;;;5072480;28;20025;-65
2021/12/27 01:00:25;;;;;;;13.57;8.05;;;;;;;;;;5072337;28;20022;-65
2021/12/27 01:02:53;;;;;;;11.95;7.00;;;;;;;;;;5072053;28;20024;-65
2021/12/27 01:05:19;;;;;;;13.02;7.45;;;;;;;;;;5072088;28;20020;-64
2021/12/27 01:07:44;;;;;;;15.57;7.22;;;;;;;;;;5071997;28;20031;-66
2021/12/27 01:17:42;;;;;;;11.48;6.95;;;;;;;;;;5072324;28;20097;-65
2021/12/27 01:20:10;;;;;;;13.50;6.78;;;;;;;;;;5052089;28;20066;-64
2021/12/27 01:22:36;;;;;;;13.02;6.18;;;;;;;;;;5051959;28;20032;-65
2021/12/27 01:25:05;;;;;;;11.93;6.47;;;;;;;;;;5053648;28;20028;-65
2021/12/27 01:27:31;;;;;;;11.43;5.78;;;;;;;;;;5051571;28;20108;-65
2021/12/27 01:29:56;;;;;;;10.15;5.97;;;;;;;;;;5051532;28;20112;-65
2021/12/27 01:32:24;;;;;;;9.15;5.88;;;;;;;;;;5051622;28;20021;-64
2021/12/27 01:34:50;;;;;;;10.27;6.13;;;;;;;;;;5051070;28;20037;-65
2021/12/27 01:37:18;;;;;;;9.40;5.35;;;;;;;;;;5051478;28;20370;-65
2021/12/27 01:39:44;;;;;;;9.50;5.53;;;;;;;;;;5051571;28;20025;-65
2021/12/27 01:42:09;;;;;;;9.27;5.60;;;;;;;;;;5051425;28;20025;-64
2021/12/27 01:44:35;;;;;;;8.80;5.35;;;;;;;;;;5051125;28;20071;-64
2021/12/27 01:47:00;;;;;;;10.63;5.35;;;;;;;;;;5051420;28;20052;-64
2021/12/27 01:49:26;;;;;;;9.13;5.78;;;;;;;;;;5051379;28;20021;-65
2021/12/27 01:51:51;;;;;;;7.93;5.68;;;;;;;;;;5051300;28;20021;-64
2021/12/27 01:54:17;;;;;;;9.52;5.43;;;;;;;;;;5051526;28;20373;-64
2021/12/27 01:56:42;;;;;;;9.30;5.50;;;;;;;;;;5050276;28;20108;-65
2021/12/27 01:59:07;;;;;;;8.00;5.35;;;;;;;;;;5051018;28;20425;-66
2021/12/27 02:01:33;;;;;;;10.05;5.93;;;;;;;;;;5051143;28;20590;-64
2021/12/27 02:03:58;;;;;;;10.48;6.25;;;;;;;;;;5050762;28;20533;-64
2021/12/27 02:06:27;;;;;;;8.82;5.57;;;;;;;;;;5050963;28;20028;-64
2021/12/27 02:08:53;;;;;;;10.25;6.40;;;;;;;;;;5050792;28;20031;-65
2021/12/27 02:11:20;;;;;;;12.18;5.93;;;;;;;;;;5050833;28;20032;-64
2021/12/27 02:13:47;;;;;;;10.60;6.20;;;;;;;;;;5050712;28;20059;-64
2021/12/27 02:16:17;;;;;;;13.38;6.70;;;;;;;;;;5050996;28;20079;-66
2021/12/27 02:18:44;;;;;;;11.43;6.40;;;;;;;;;;5050700;28;20037;-65
2021/12/27 02:21:11;;;;;;;12.77;6.40;;;;;;;;;;5053959;28;20479;-65
2021/12/27 02:23:39;;;;;;;9.23;5.93;;;;;;;;;;5070501;28;20067;-65
2021/12/27 02:26:04;;;;;;;9.55;6.32;;;;;;;;;;5072867;28;20064;-65
2021/12/27 02:28:30;;;;;;;9.35;6.03;;;;;;;;;;5070500;28;20067;-65
2021/12/27 02:30:55;;;;;;;12.13;6.18;;;;;;;;;;5070706;28;20078;-64
2021/12/27 02:33:21;;;;;;;10.20;5.97;;;;;;;;;;5070426;28;20487;-67
2021/12/27 02:35:53;;;;;;;9.57;6.57;;;;;;;;;;5070338;28;20043;-65
2021/12/27 02:38:31;;;;;;;13.80;6.68;;;;;;;;;;5068194;28;20037;-64
2021/12/27 02:40:58;;;;;;;12.48;7.38;;;;;;;;;;5070794;28;20040;-65
2021/12/27 02:43:25;;;;;;;13.18;7.05;;;;;;;;;;5070470;28;20043;-65
2021/12/27 02:45:57;;;;;;;11.63;6.80;;;;;;;;;;5070744;28;20094;-65
2021/12/27 02:48:26;;;;;;;10.98;7.13;;;;;;;;;;5070516;28;20025;-65
2021/12/27 02:50:53;;;;;;;13.23;7.93;;;;;;;;;;5070491;28;20016;-64
2021/12/27 02:53:20;;;;;;;11.07;6.72;;;;;;;;;;5067201;28;20013;-65
2021/12/27 02:55:50;;;;;;;12.43;7.00;;;;;;;;;;5070254;28;20033;-64
2021/12/27 02:58:16;;;;;;;10.07;6.85;;;;;;;;;;5070281;28;20028;-65
2021/12/27 03:00:48;;;;;;;12.48;7.07;;;;;;;;;;5070444;28;20056;-64
2021/12/27 03:03:14;;;;;;;13.23;7.30;;;;;;;;;;5070223;28;20039;-65
2021/12/27 03:05:42;;;;;;;10.05;6.75;;;;;;;;;;5070261;28;20024;-65
2021/12/27 03:08:13;;;;;;;12.15;7.35;;;;;;;;;;5066249;28;20017;-64
2021/12/27 03:10:41;;;;;;;10.18;6.95;;;;;;;;;;5054179;28;20029;-64
2021/12/27 03:13:07;;;;;;;13.23;6.72;;;;;;;;;;5036385;28;20396;-65
2021/12/27 03:15:32;;;;;;;12.32;6.97;;;;;;;;;;5053857;28;20483;-66
2021/12/27 03:17:58;;;;;;;11.68;6.90;;;;;;;;;;5053992;28;20025;-65
2021/12/27 03:20:26;;;;;;;11.55;6.68;;;;;;;;;;5053514;28;20029;-65
2021/12/27 03:22:52;;;;;;;10.50;6.45;;;;;;;;;;5054039;28;20396;-66
2021/12/27 03:25:21;;;;;;;9.40;6.35;;;;;;;;;;5068502;28;20036;-65
2021/12/27 03:27:47;;;;;;;12.52;6.90;;;;;;;;;;5073629;28;20032;-64
2021/12/27 03:30:26;;;;;;;9.05;6.45;;;;;;;;;;5074051;28;20030;-65
2021/12/27 03:32:52;;;;;;;11.10;6.70;;;;;;;;;;5073702;28;20463;-64
2021/12/27 03:35:25;;;;;;;11.52;7.35;;;;;;;;;;5073248;28;20059;-65
2021/12/27 03:37:53;;;;;;;9.02;6.18;;;;;;;;;;5073921;28;20024;-65
2021/12/27 03:40:20;;;;;;;11.45;6.40;;;;;;;;;;5077951;28;20047;-64
2021/12/27 03:42:49;;;;;;;10.07;6.00;;;;;;;;;;5073572;28;20020;-64
2021/12/27 03:45:27;;;;;;;8.48;5.63;;;;;;;;;;5073333;28;20028;-64
2021/12/27 03:47:52;;;;;;;11.15;5.90;;;;;;;;;;5073813;28;20027;-64
2021/12/27 03:50:18;;;;;;;10.32;5.43;;;;;;;;;;5073638;28;20020;-66
2021/12/27 03:52:44;;;;;;;9.23;5.68;;;;;;;;;;5073713;28;20046;-64
2021/12/27 03:55:11;;;;;;;8.95;5.47;;;;;;;;;;5073398;28;20021;-64
2021/12/27 03:57:39;;;;;;;11.93;5.65;;;;;;;;;;5073457;28;20055;-64
2021/12/27 04:00:26;;;;;;;8.13;4.63;;;;;;;;;;5073305;28;20074;-65
2021/12/27 04:02:54;;;;;;;8.57;4.43;;;;;;;;;;5073378;28;20185;-64
2021/12/27 04:05:21;;;;;;;10.93;4.50;;;;;;;;;;5073164;28;20032;-64
2021/12/27 04:07:55;;;;;;;7.53;4.20;;;;;;;;;;5073018;28;20040;-65
2021/12/27 04:10:21;;;;;;;7.85;4.70;;;;;;;;;;5075129;28;20063;-64
2021/12/27 04:12:46;;;;;;;7.18;4.40;;;;;;;;;;5072786;28;20024;-64
2021/12/27 04:15:12;;;;;;;10.05;5.00;;;;;;;;;;5072811;28;20399;-64
2021/12/27 04:17:38;;;;;;;7.53;4.57;;;;;;;;;;5073077;28;20036;-69
2021/12/27 04:20:05;;;;;;;7.38;4.80;;;;;;;;;;5054020;28;20395;-64
2021/12/27 04:22:33;;;;;;;8.00;4.35;;;;;;;;;;5072641;28;20435;-67
2021/12/27 04:24:59;;;;;;;10.65;5.10;;;;;;;;;;5072454;28;20024;-64
2021/12/27 04:27:25;;;;;;;7.28;4.38;;;;;;;;;;5074658;28;20107;-64
2021/12/27 04:29:50;;;;;;;7.00;4.32;;;;;;;;;;5072643;28;20104;-65
2021/12/27 04:32:16;;;;;;;7.80;4.43;;;;;;;;;;5072552;28;20267;-64
2021/12/27 04:34:41;;;;;;;8.73;4.38;;;;;;;;;;5072251;28;20048;-64
2021/12/27 04:37:06;;;;;;;7.07;4.20;;;;;;;;;;5072303;28;20039;-65
2021/12/27 04:39:32;;;;;;;6.75;4.28;;;;;;;;;;5072527;28;20528;-64
2021/12/27 04:41:58;;;;;;;7.72;4.63;;;;;;;;;;5072509;28;20032;-66
2021/12/27 04:44:23;;;;;;;7.00;4.28;;;;;;;;;;5073368;28;20040;-64
2021/12/27 04:46:49;;;;;;;11.20;5.40;;;;;;;;;;5074098;28;20025;-65
2021/12/27 04:49:14;;;;;;;8.15;4.95;;;;;;;;;;5072715;28;20029;-64
2021/12/27 04:51:40;;;;;;;7.03;4.22;;;;;;;;;;5054185;28;20261;-68
2021/12/27 04:54:05;;;;;;;8.77;4.57;;;;;;;;;;5072391;28;20490;-66
2021/12/27 04:56:31;;;;;;;9.32;4.55;;;;;;;;;;5071843;28;20487;-64
2021/12/27 04:58:56;;;;;;;7.60;4.53;;;;;;;;;;5068978;28;20071;-67
2021/12/27 05:01:22;;;;;;;8.38;4.53;;;;;;;;;;5051874;28;20025;-64
2021/12/27 05:03:49;;;;;;;6.60;4.20;;;;;;;;;;5072066;28;20021;-64
2021/12/27 05:06:14;;;;;;;8.13;4.20;;;;;;;;;;5073824;28;20031;-64
2021/12/27 05:08:41;;;;;;;8.32;4.38;;;;;;;;;;5072028;28;20099;-70
2021/12/27 05:11:08;;;;;;;7.13;4.47;;;;;;;;;;5072292;28;20021;-64
2021/12/27 05:13:34;;;;;;;7.65;4.00;;;;;;;;;;5072172;28;20016;-64
2021/12/27 05:16:03;;;;;;;8.32;3.95;;;;;;;;;;5071656;28;20082;-67
2021/12/27 05:18:29;;;;;;;7.55;4.22;;;;;;;;;;5071938;28;20029;-64
2021/12/27 05:20:54;;;;;;;8.80;4.30;;;;;;;;;;5071680;28;20077;-64
2021/12/27 05:23:20;;;;;;;8.27;3.92;;;;;;;;;;5071648;28;20074;-65
2021/12/27 05:25:46;;;;;;;8.25;5.00;;;;;;;;;;5071630;28;20031;-64
2021/12/27 05:28:11;;;;;;;9.05;4.97;;;;;;;;;;5053638;28;20487;-65
2021/12/27 05:30:38;;;;;;;11.90;4.45;;;;;;;;;;5071651;28;20032;-65
2021/12/27 05:33:04;;;;;;;8.63;4.00;;;;;;;;;;5071879;28;20025;-64
2021/12/27 05:35:30;;;;;;;9.50;4.38;;;;;;;;;;5086537;28;20041;-64
2021/12/27 05:37:55;;;;;;;7.18;4.40;;;;;;;;;;5073466;28;20025;-65
2021/12/27 05:40:22;;;;;;;7.03;4.53;;;;;;;;;;5071478;28;20021;-64
2021/12/27 05:42:53;;;;;;;8.57;4.25;;;;;;;;;;5071262;28;20028;-64
2021/12/27 05:45:19;;;;;;;7.85;4.00;;;;;;;;;;5071298;28;20066;-64
2021/12/27 05:47:45;;;;;;;7.43;3.90;;;;;;;;;;5071369;28;20037;-65
2021/12/27 05:50:12;;;;;;;9.57;4.13;;;;;;;;;;5071238;28;20082;-64
2021/12/27 05:52:38;;;;;;;7.88;4.00;;;;;;;;;;5071113;28;20070;-64
2021/12/27 05:55:05;;;;;;;5.45;3.70;;;;;;;;;;5072961;28;20481;-64
2021/12/27 05:57:31;;;;;;;6.28;3.65;;;;;;;;;;5071029;28;20020;-64
2021/12/27 05:59:57;;;;;;;5.90;3.45;;;;;;;;;;5071052;28;20060;-65
2021/12/27 06:02:23;;;;;;;6.75;3.88;;;;;;;;;;5071041;28;20055;-64
2021/12/27 06:04:49;;;;;;;5.63;3.80;;;;;;;;;;5070895;28;20077;-64
2021/12/27 06:07:14;;;;;;;6.40;3.65;;;;;;;;;;5071035;28;20029;-64
2021/12/27 06:09:40;;;;;;;5.25;3.50;;;;;;;;;;5069590;28;20029;-66
2021/12/27 06:12:06;;;;;;;8.02;3.70;;;;;;;;;;5070538;28;20033;-65
2021/12/27 06:14:31;;;;;;;7.20;3.70;;;;;;;;;;5070484;28;20045;-65
2021/12/27 06:16:57;;;;;;;7.10;4.00;;;;;;;;;;5052517;28;20494;-65
2021/12/27 06:19:22;;;;;;;10.45;3.92;;;;;;;;;;5069286;28;20051;-65
2021/12/27 06:21:49;;;;;;;9.27;4.00;;;;;;;;;;5068772;28;20020;-65
2021/12/27 06:24:15;;;;;;;7.00;3.90;;;;;;;;;;5070723;28;20024;-65
2021/12/27 06:26:40;;;;;;;6.40;3.88;;;;;;;;;;5070491;28;20031;-67
2021/12/27 06:29:05;;;;;;;7.07;4.00;;;;;;;;;;5070551;28;20541;-65
2021/12/27 06:31:31;;;;;;;7.40;3.70;;;;;;;;;;5070607;28;20113;-65
2021/12/27 06:33:56;;;;;;;8.02;3.65;;;;;;;;;;5070483;28;20541;-65
2021/12/27 06:36:22;;;;;;;5.95;3.35;;;;;;;;;;5070414;28;20029;-64
2021/12/27 06:38:47;;;;;;;7.68;3.70;;;;;;;;;;5070509;28;20099;-64
2021/12/27 06:41:13;;;;;;;6.75;3.90;;;;;;;;;;5072254;28;20020;-64
2021/12/27 06:43:38;;;;;;;8.15;3.63;;;;;;;;;;5070199;28;20436;-64
2021/12/27 06:46:04;;;;;;;5.63;3.30;;;;;;;;;;5071625;28;20135;-67
2021/12/27 06:48:30;;;;;;;6.10;3.28;;;;;;;;;;5070357;28;20063;-64
2021/12/27 06:50:56;;;;;;;9.40;3.65;;;;;;;;;;5070446;28;20066;-65
2021/12/27 06:53:23;;;;;;;7.53;4.00;;;;;;;;;;5052565;28;20025;-65
2021/12/27 06:55:49;;;;;;;7.75;3.50;;;;;;;;;;5070250;28;20032;-64
2021/12/27 06:58:14;;;;;;;7.72;3.88;;;;;;;;;;5070193;28;20077;-64
2021/12/27 07:00:40;;;;;;;5.50;3.55;;;;;;;;;;5064873;28;20036;-64
2021/12/27 07:03:06;;;;;;;5.32;3.55;;;;;;;;;;5070307;28;20029;-64
2021/12/27 07:05:31;;;;;;;8.05;4.20;;;;;;;;;;5070232;28;20155;-65
2021/12/27 07:07:57;;;;;;;7.90;3.90;;;;;;;;;;5070411;28;20027;-64
2021/12/27 07:10:23;;;;;;;7.35;4.10;;;;;;;;;;5052181;28;20017;-64
2021/12/27 07:12:49;;;;;;;9.52;4.00;;;;;;;;;;5070153;28;20029;-64
2021/12/27 07:15:15;;;;;;;7.50;4.22;;;;;;;;;;5070475;28;20024;-65
2021/12/27 07:17:41;;;;;;;7.50;3.83;;;;;;;;;;5070067;28;20021;-64
2021/12/27 07:20:07;;;;;;;9.63;4.32;;;;;;;;;;5070238;28;20031;-64
2021/12/27 07:22:34;;;;;;;11.65;4.53;;;;;;;;;;5051845;28;20033;-64
2021/12/27 07:25:00;;;;;;;7.63;4.00;;;;;;;;;;5070209;28;20056;-64
2021/12/27 07:27:25;;;;;;;7.80;4.03;;;;;;;;;;5069888;28;20071;-64
2021/12/27 07:29:51;;;;;;;8.43;3.95;;;;;;;;;;5069939;28;20020;-64
2021/12/27 07:32:16;;;;;;;6.47;4.07;;;;;;;;;;5069962;28;20031;-64
2021/12/27 07:34:43;;;;;;;7.57;4.15;;;;;;;;;;5069436;28;20511;-64
2021/12/27 07:37:08;;;;;;;7.22;4.07;;;;;;;;;;5069682;28;20028;-63
2021/12/27 07:39:34;;;;;;;8.75;4.65;;;;;;;;;;5069775;28;20020;-63
2021/12/27 07:41:59;;;;;;;7.05;4.40;;;;;;;;;;5069795;28;20024;-64
2021/12/27 07:44:25;;;;;;;9.05;4.25;;;;;;;;;;5069644;28;20074;-65
2021/12/27 07:46:51;;;;;;;10.70;4.88;;;;;;;;;;5069371;28;20025;-65
2021/12/27 07:49:17;;;;;;;8.23;5.25;;;;;;;;;;5069735;28;20403;-64
2021/12/27 07:51:44;;;;;;;11.20;4.60;;;;;;;;;;5069768;28;20024;-65
2021/12/27 07:54:10;;;;;;;7.80;5.00;;;;;;;;;;5069598;28;20020;-65
2021/12/27 07:56:37;;;;;;;9.52;4.75;;;;;;;;;;5073006;28;20051;-66
2021/12/27 07:59:04;;;;;;;12.95;5.38;;;;;;;;;;5073275;28;20032;-65
2021/12/27 08:01:37;;;;;;;10.80;4.95;;;;;;;;;;5073168;28;20028;-65
2021/12/27 08:04:05;;;;;;;9.48;4.90;;;;;;;;;;5073423;28;20099;-65
2021/12/27 08:06:31;;;;;;;8.63;4.60;;;;;;;;;;5073116;28;20024;-65
2021/12/27 08:08:57;;;;;;;10.43;4.88;;;;;;;;;;5073097;28;20048;-65
2021/12/27 08:11:24;;;;;;;12.02;4.95;;;;;;;;;;5073138;28;20449;-64
2021/12/27 08:13:49;;;;;;;7.40;4.63;;;;;;;;;;5072975;28;20107;-64
2021/12/27 08:16:17;;;;;;;7.47;4.40;;;;;;;;;;5071865;28;20135;-65
2021/12/27 08:18:42;;;;;;;10.38;4.55;;;;;;;;;;5071357;28;20034;-64
2021/12/27 08:21:08;;;;;;;8.32;4.85;;;;;;;;;;5073087;28;20020;-65
2021/12/27 08:23:33;;;;;;;9.63;4.90;;;;;;;;;;5072997;28;20434;-66
2021/12/27 08:25:59;;;;;;;7.70;4.82;;;;;;;;;;5072485;28;20650;-70
2021/12/27 08:28:24;;;;;;;11.02;5.25;;;;;;;;;;5071891;28;20391;-64
2021/12/27 08:30:50;;;;;;;12.13;5.57;;;;;;;;;;5071780;28;20078;-64
2021/12/27 08:33:16;;;;;;;8.82;5.20;;;;;;;;;;5070513;28;20031;-64
2021/12/27 08:35:42;;;;;;;8.45;5.38;;;;;;;;;;5067810;28;20090;-67
2021/12/27 08:38:07;;;;;;;11.48;5.50;;;;;;;;;;5072551;28;20024;-69
2021/12/27 08:40:33;;;;;;;8.75;5.45;;;;;;;;;;5072634;28;20039;-65
2021/12/27 08:42:59;;;;;;;9.52;5.70;;;;;;;;;;5070976;28;20119;-64
2021/12/27 08:45:24;;;;;;;11.13;5.65;;;;;;;;;;5072434;28;20036;-66
2021/12/27 08:47:50;;;;;;;8.82;5.40;;;;;;;;;;5054460;28;20025;-65
2021/12/27 08:50:17;;;;;;;11.65;5.68;;;;;;;;;;5072444;28;20020;-66
2021/12/27 08:52:44;;;;;;;10.82;5.72;;;;;;;;;;5054393;28;20029;-65
2021/12/27 08:55:10;;;;;;;10.70;5.72;;;;;;;;;;5072865;28;20036;-74
2021/12/27 08:57:36;;;;;;;12.95;5.75;;;;;;;;;;5071926;28;20035;-64
2021/12/27 09:00:05;;;;;;;11.07;5.50;;;;;;;;;;5071974;28;20028;-65
2021/12/27 09:02:31;;;;;;;6.75;4.28;;;;;;;;;;5072261;28;20560;-64
2021/12/27 09:04:56;;;;;;;8.48;4.40;;;;;;;;;;5072621;28;20048;-65
2021/12/27 09:07:22;;;;;;;7.53;3.97;;;;;;;;;;5071882;28;20025;-69
2021/12/27 09:09:47;;;;;;;6.50;4.10;;;;;;;;;;5071927;28;20017;-64
2021/12/27 09:12:13;;;;;;;7.32;4.20;;;;;;;;;;5072489;28;20486;-64
2021/12/27 09:14:38;;;;;;;10.95;4.38;;;;;;;;;;5070283;28;20051;-65
2021/12/27 09:17:04;;;;;;;7.88;3.97;;;;;;;;;;5070764;28;20035;-65
2021/12/27 09:19:30;;;;;;;10.38;4.70;;;;;;;;;;5069930;28;20031;-73
2021/12/27 09:21:56;;;;;;;9.93;5.13;;;;;;;;;;5050764;28;20025;-66
2021/12/27 09:24:22;;;;;;;12.43;4.60;;;;;;;;;;5069925;28;20025;-66
2021/12/27 09:26:47;;;;;;;13.45;4.70;;;;;;;;;;5071108;28;20016;-65
2021/12/27 09:29:13;;;;;;;9.07;5.10;;;;;;;;;;5069680;28;20019;-64
2021/12/27 09:31:38;;;;;;;11.35;5.90;;;;;;;;;;5071377;28;20032;-65
2021/12/27 09:34:04;;;;;;;12.68;7.00;;;;;;;;;;5071185;28;20113;-65
2021/12/27 09:36:30;;;;;;;18.77;8.05;;;;;;;;;;5071489;28;20438;-65
2021/12/27 09:38:56;;;;;;;18.08;9.23;;;;;;;;;;5071472;28;20052;-65
2021/12/27 09:41:22;;;;;;;17.70;9.32;;;;;;;;;;5053254;28;20551;-65
2021/12/27 09:43:48;;;;;;;20.65;9.05;;;;;;;;;;5071532;28;20095;-64
2021/12/27 09:46:13;;;;;;;18.52;8.52;;;;;;;;;;5071498;28;20104;-67
2021/12/27 09:48:39;;;;;;;19.08;8.13;;;;;;;;;;5071531;28;20104;-65
2021/12/27 09:51:05;;;;;;;13.25;7.10;;;;;;;;;;5071190;28;20063;-65
2021/12/27 09:53:30;;;;;;;18.85;8.02;;;;;;;;;;5078237;28;20036;-65
2021/12/27 09:55:56;;;;;;;19.05;9.20;;;;;;;;;;5074938;28;20501;-66
2021/12/27 09:58:21;;;;;;;21.17;11.20;;;;;;;;;;5070924;28;20031;-65
2021/12/27 10:00:47;;;;;;;25.17;11.02;;;;;;;;;;5070924;28;20140;-65
2021/12/27 10:03:12;;;;;;;18.88;10.02;;;;;;;;;;5070929;28;20407;-67
2021/12/27 10:05:38;;;;;;;22.02;10.90;;;;;;;;;;5071044;28;20062;-66
2021/12/27 10:08:04;;;;;;;20.80;10.50;;;;;;;;;;5070481;28;20078;-66
2021/12/27 10:10:34;;;;;;;22.13;10.63;;;;;;;;;;5071151;28;20107;-66
2021/12/27 10:13:01;;;;;;;26.27;11.80;;;;;;;;;;5070962;28;20043;-65
2021/12/27 10:15:38;;;;;;;22.40;11.07;;;;;;;;;;5070710;28;20032;-74
2021/12/27 10:18:12;;;;;;;23.48;9.73;;;;;;;;;;5070044;28;20040;-65
2021/12/27 10:20:38;;;;;;;18.55;9.00;;;;;;;;;;5070525;28;20583;-66
2021/12/27 10:23:03;;;;;;;15.85;8.00;;;;;;;;;;5070607;28;20100;-73
2021/12/27 10:25:29;;;;;;;17.63;7.82;;;;;;;;;;5070794;28;20021;-66
2021/12/27 10:27:58;;;;;;;18.63;9.40;;;;;;;;;;5070573;28;20064;-66
2021/12/27 10:30:26;;;;;;;19.85;8.48;;;;;;;;;;5070504;28;20074;-65
2021/12/27 10:33:12;;;;;;;17.77;7.47;;;;;;;;;;5070577;28;20035;-68
2021/12/27 10:35:51;;;;;;;19.92;8.30;;;;;;;;;;5070191;28;20522;-65
2021/12/27 10:38:23;;;;;;;19.15;9.95;;;;;;;;;;5070623;28;20040;-65
2021/12/27 10:41:10;;;;;;;16.73;7.40;;;;;;;;;;5070448;28;20020;-65
2021/12/27 10:43:44;;;;;;;16.15;8.80;;;;;;;;;;5085654;28;20021;-65
2021/12/27 10:46:18;;;;;;;37.65;20.83;;;;;;;;;;5070308;28;20078;-66
2021/12/27 10:48:57;;;;;;;12.88;7.88;;;;;;;;;;5070628;28;20028;-65
2021/12/27 10:51:26;;;;;;;17.98;9.20;;;;;;;;;;5070073;28;20365;-66
2021/12/27 10:53:55;;;;;;;17.10;8.53;;;;;;;;;;5070466;28;20048;-67
2021/12/27 10:56:23;;;;;;;12.38;6.60;;;;;;;;;;5070308;28;20054;-68
2021/12/27 10:58:53;;;;;;;24.40;15.05;;;;;;;;;;5070129;28;20212;-64
2021/12/27 11:01:20;;;;;;;14.98;7.70;;;;;;;;;;5070089;28;20020;-64
2021/12/27 11:03:48;;;;;;;13.85;9.50;;;;;;;;;;5070389;28;20137;-66
2021/12/27 11:06:18;;;;;;;12.55;6.47;;;;;;;;;;5070251;28;20032;-66
2021/12/27 11:08:45;;;;;;;12.80;4.75;;;;;;;;;;5070205;28;20104;-66
2021/12/27 11:11:16;;;;;;;9.00;4.78;;;;;;;;;;5070029;28;20060;-66
2021/12/27 11:13:42;;;;;;;8.80;4.55;;;;;;;;;;5070083;28;20462;-66
2021/12/27 11:16:08;;;;;;;12.02;5.10;;;;;;;;;;5070020;28;20043;-66
2021/12/27 11:18:34;;;;;;;9.48;5.10;;;;;;;;;;5070098;28;20024;-66
2021/12/27 11:21:09;;;;;;;16.20;9.38;;;;;;;;;;5069946;28;20043;-68
2021/12/27 11:23:35;;;;;;;10.23;5.60;;;;;;;;;;5070038;28;20391;-66
2021/12/27 11:26:03;;;;;;;9.40;4.57;;;;;;;;;;5070364;28;20471;-74
2021/12/27 11:28:34;;;;;;;8.57;4.88;;;;;;;;;;5070248;28;20025;-66
2021/12/27 11:31:16;;;;;;;10.43;5.88;;;;;;;;;;5073675;28;20384;-66
2021/12/27 11:34:03;;;;;;;12.23;7.30;;;;;;;;;;5073615;28;20541;-66
2021/12/27 11:36:31;;;;;;;19.38;9.95;;;;;;;;;;5073716;28;20126;-66
2021/12/27 11:38:59;;;;;;;22.38;11.88;;;;;;;;;;5073771;28;20020;-66
2021/12/27 11:41:24;;;;;;;31.83;15.50;;;;;;;;;;5073564;28;20027;-66
2021/12/27 11:43:55;;;;;;;24.10;13.10;;;;;;;;;;5073621;28;20383;-66
2021/12/27 11:46:23;;;;;;;25.70;13.15;;;;;;;;;;5073766;28;20025;-77
2021/12/27 11:48:53;;;;;;;20.52;10.25;;;;;;;;;;5073461;28;20027;-66
2021/12/27 11:51:38;;;;;;;21.38;12.45;;;;;;;;;;5073476;28;20035;-66
2021/12/27 11:54:05;;;;;;;15.65;9.32;;;;;;;;;;5073445;28;20028;-67
2021/12/27 11:56:49;;;;;;;17.33;9.23;;;;;;;;;;5073213;28;20107;-67
2021/12/27 11:59:38;;;;;;;16.15;8.73;;;;;;;;;;5073037;28;20245;-66
2021/12/27 12:02:15;;;;;;;15.18;8.52;;;;;;;;;;5073165;28;20032;-67
2021/12/27 12:04:41;;;;;;;17.08;8.30;;;;;;;;;;5073153;28;20501;-67
2021/12/27 12:07:08;;;;;;;13.25;7.63;;;;;;;;;;5073016;28;20070;-69
2021/12/27 12:09:47;;;;;;;11.35;6.28;;;;;;;;;;5073161;28;20028;-67
2021/12/27 12:12:14;;;;;;;11.98;5.70;;;;;;;;;;5072996;28;20032;-67
2021/12/27 12:14:41;;;;;;;9.52;5.32;;;;;;;;;;5073001;28;20017;-68
2021/12/27 12:17:14;;;;;;;9.20;5.18;;;;;;;;;;5072987;28;20111;-67
2021/12/27 12:19:47;;;;;;;7.18;4.35;;;;;;;;;;5073048;28;20142;-66
2021/12/27 12:22:33;;;;;;;9.27;5.30;;;;;;;;;;5072550;28;20021;-66
2021/12/27 12:25:20;;;;;;;9.52;5.00;;;;;;;;;;5072630;28;20031;-66
2021/12/27 12:27:50;;;;;;;9.02;4.88;;;;;;;;;;5072555;28;20545;-66
2021/12/27 12:30:16;;;;;;;10.70;5.30;;;;;;;;;;5072815;28;20028;-70
2021/12/27 12:32:57;;;;;;;9.38;4.90;;;;;;;;;;5072357;28;20112;-66
2021/12/27 12:35:31;;;;;;;;;;;;;;;;;;5072840;28;20082;-67
2021/12/27 12:38:11;;;;;;;9.65;5.22;;;;;;;;;;5072630;28;20344;-68
2021/12/27 12:40:37;;;;;;;9.60;5.32;;;;;;;;;;5071609;28;20027;-67
2021/12/27 12:43:02;;;;;;;14.15;7.03;;;;;;;;;;5072317;28;20054;-68
2021/12/27 12:45:32;;;;;;;13.57;5.38;;;;;;;;;;5072507;28;20079;-66
2021/12/27 12:47:58;;;;;;;9.27;4.80;;;;;;;;;;5072453;28;20098;-66
2021/12/27 12:50:24;;;;;;;8.02;4.90;;;;;;;;;;5072304;28;20450;-69
2021/12/27 12:52:56;;;;;;;10.27;4.15;;;;;;;;;;5072081;28;20024;-67
2021/12/27 12:55:24;;;;;;;12.02;3.80;;;;;;;;;;5072154;28;20020;-66
2021/12/27 12:57:51;;;;;;;9.20;4.28;;;;;;;;;;5072035;28;20518;-66
2021/12/27 13:00:27;;;;;;;7.28;4.00;;;;;;;;;;5072099;28;20028;-66
2021/12/27 13:02:52;;;;;;;21.35;12.73;;;;;;;;;;5071956;28;20031;-66
2021/12/27 13:05:19;;;;;;;10.15;5.30;;;;;;;;;;5071998;28;20107;-66
2021/12/27 13:07:54;;;;;;;8.27;4.00;;;;;;;;;;5072121;28;20035;-67
2021/12/27 13:10:21;;;;;;;10.07;4.60;;;;;;;;;;5071896;28;20035;-66
2021/12/27 13:12:47;;;;;;;7.72;3.67;;;;;;;;;;5071755;28;20024;-66
2021/12/27 13:15:22;;;;;;;5.63;3.38;;;;;;;;;;5071719;28;20506;-66
2021/12/27 13:18:07;;;;;;;6.20;3.92;;;;;;;;;;5072085;28;20032;-66
2021/12/27 13:20:53;;;;;;;4.68;2.95;;;;;;;;;;5071876;28;20032;-66
2021/12/27 13:23:21;;;;;;;13.10;6.00;;;;;;;;;;5071254;28;20392;-66
2021/12/27 13:25:49;;;;;;;12.88;6.30;;;;;;;;;;5071521;28;20483;-66
2021/12/27 13:28:20;;;;;;;14.48;9.05;;;;;;;;;;5071396;28;20025;-67
2021/12/27 13:30:50;;;;;;;8.93;5.90;;;;;;;;;;5071454;28;20032;-67
2021/12/27 13:33:18;;;;;;;8.48;5.65;;;;;;;;;;5071190;28;20501;-66
2021/12/27 13:35:44;;;;;;;16.35;6.78;;;;;;;;;;5070977;28;20087;-66
2021/12/27 13:38:18;;;;;;;19.40;10.68;;;;;;;;;;5071420;28;20446;-66
2021/12/27 13:40:49;;;;;;;11.75;7.93;;;;;;;;;;5071285;28;20029;-66
2021/12/27 13:43:14;;;;;;;33.72;21.02;;;;;;;;;;5070908;28;20126;-66
2021/12/27 13:45:42;;;;;;;11.30;7.70;;;;;;;;;;5071205;28;20033;-66
2021/12/27 13:48:09;;;;;;;16.95;11.40;;;;;;;;;;5053178;28;20020;-66
2021/12/27 13:50:36;;;;;;;14.60;10.35;;;;;;;;;;5070996;28;20035;-66
2021/12/27 13:53:13;;;;;;;11.98;8.95;;;;;;;;;;5069976;28;20052;-66
2021/12/27 13:55:38;;;;;;;14.88;9.70;;;;;;;;;;5070938;28;20105;-66
2021/12/27 13:58:15;;;;;;;8.98;5.35;;;;;;;;;;5070959;28;20388;-66
2021/12/27 14:00:41;;;;;;;9.57;5.35;;;;;;;;;;5071040;28;20025;-67
2021/12/27 14:03:26;;;;;;;8.98;5.85;;;;;;;;;;5070905;28;20021;-66
2021/12/27 14:05:54;;;;;;;10.18;5.28;;;;;;;;;;5070839;28;20032;-66
2021/12/27 14:08:19;;;;;;;9.85;5.50;;;;;;;;;;5070928;28;20027;-69
2021/12/27 14:11:09;;;;;;;23.23;12.07;;;;;;;;;;5070948;28;20107;-66
2021/12/27 14:13:50;;;;;;;16.02;9.05;;;;;;;;;;5070667;28;20033;-66
2021/12/27 14:16:17;;;;;;;;;;;;;;;;;;5071224;28;20040;-66
2021/12/27 14:19:10;;;;;;;19.10;10.23;;;;;;;;;;5070846;28;19924;-66
2021/12/27 14:21:55;;;;;;;16.70;9.82;;;;;;;;;;5070930;28;20035;-66
2021/12/27 14:24:39;;;;;;;21.90;14.07;;;;;;;;;;5070779;28;20032;-66
2021/12/27 14:27:13;;;;;;;13.70;9.10;;;;;;;;;;5070659;28;20029;-66
2021/12/27 14:29:39;;;;;;;13.82;8.95;;;;;;;;;;5070883;28;20024;-66
2021/12/27 14:32:04;;;;;;;16.83;9.95;;;;;;;;;;5070538;28;20095;-72
2021/12/27 14:34:42;;;;;;;17.98;9.50;;;;;;;;;;5070375;28;20045;-66
2021/12/27 14:37:09;;;;;;;17.33;10.27;;;;;;;;;;5070552;28;20063;-66
2021/12/27 14:39:35;;;;;;;16.33;9.55;;;;;;;;;;5070553;28;20028;-66
2021/12/27 14:42:00;;;;;;;15.77;10.55;;;;;;;;;;5070254;28;20021;-66
2021/12/27 14:44:26;;;;;;;19.20;11.55;;;;;;;;;;5070356;28;20047;-66
2021/12/27 14:46:53;;;;;;;16.33;10.43;;;;;;;;;;5070426;28;20025;-66
2021/12/27 14:49:20;;;;;;;15.35;10.25;;;;;;;;;;5070342;28;20438;-66